Time;durP1;ratioP1;P1;durP2;ratioP2;P2;SDS_P1;SDS_P2;PMS_P1;PMS_P2;Temp;Humidity;BMP_temperature;BMP_pressure;BME280_temperature;BME280_humidity;BME280_pressure;Samples;Min_cycle;Max_cycle;Signal;HPM_P1;HPM_P2
2022/05/07 00:02:07;;;;;;;7.05;5.50;;;18.90;70.70;;;;;;5034266;28;20123;-74
2022/05/07 00:04:36;;;;;;;7.97;5.80;;;19.00;70.90;;;;;;5034682;28;20026;-75
2022/05/07 00:07:04;;;;;;;7.57;6.15;;;18.90;70.90;;;;;;5034598;28;20079;-75
2022/05/07 00:09:30;;;;;;;8.77;6.13;;;18.90;71.20;;;;;;5034489;28;20025;-74
2022/05/07 00:11:55;;;;;;;7.97;6.13;;;18.80;71.40;;;;;;5034738;28;20040;-75
2022/05/07 00:14:21;;;;;;;6.72;5.75;;;18.80;71.40;;;;;;5034468;28;20105;-74
2022/05/07 00:19:32;;;;;;;8.45;6.80;;;18.90;71.40;;;;;;5034769;28;20036;-75
2022/05/07 00:21:58;;;;;;;8.10;6.05;;;18.90;71.40;;;;;;5034195;28;20500;-74
2022/05/07 00:24:24;;;;;;;7.05;6.30;;;18.80;71.50;;;;;;5034610;28;20189;-74
2022/05/07 00:26:49;;;;;;;6.97;5.88;;;18.80;71.60;;;;;;5033943;28;20116;-74
2022/05/07 00:29:15;;;;;;;6.97;5.47;;;18.80;71.70;;;;;;5034474;28;20531;-74
2022/05/07 00:31:41;;;;;;;5.85;5.13;;;18.80;71.60;;;;;;5034246;28;20056;-75
2022/05/07 00:34:07;;;;;;;6.68;5.72;;;18.90;71.60;;;;;;5034196;28;20025;-75
2022/05/07 00:36:33;;;;;;;7.85;6.22;;;18.90;71.60;;;;;;5034090;28;20051;-75
2022/05/07 00:38:58;;;;;;;9.85;5.32;;;18.80;71.60;;;;;;5034220;28;20025;-75
2022/05/07 00:41:24;;;;;;;7.03;5.97;;;18.80;71.70;;;;;;5033803;28;20021;-75
2022/05/07 00:43:49;;;;;;;5.72;5.20;;;18.80;71.80;;;;;;5034221;28;20049;-75
2022/05/07 00:46:16;;;;;;;7.28;5.57;;;18.80;71.80;;;;;;5033734;28;20412;-75
2022/05/07 00:48:43;;;;;;;6.18;5.53;;;18.80;71.80;;;;;;5034001;28;20030;-75
2022/05/07 00:53:53;;;;;;;7.30;5.90;;;18.90;72.50;;;;;;5033888;28;20068;-75
2022/05/07 00:56:19;;;;;;;7.75;4.53;;;18.80;71.70;;;;;;5033973;28;20037;-75
2022/05/07 00:58:45;;;;;;;5.97;5.38;;;18.80;71.70;;;;;;5033785;28;20047;-76
2022/05/07 01:01:10;;;;;;;6.15;5.43;;;18.90;71.60;;;;;;5033957;28;20018;-75
2022/05/07 01:03:38;;;;;;;7.60;5.32;;;18.90;71.60;;;;;;5033392;28;20126;-75
2022/05/07 01:06:04;;;;;;;8.48;5.47;;;18.90;71.60;;;;;;5033777;28;20033;-76
2022/05/07 01:08:33;;;;;;;6.97;5.53;;;18.90;71.70;;;;;;5033963;28;20043;-75
2022/05/07 01:11:00;;;;;;;9.77;5.25;;;18.90;71.70;;;;;;5033348;28;20036;-75
2022/05/07 01:13:27;;;;;;;10.55;6.10;;;18.90;71.70;;;;;;5033703;28;20034;-75
2022/05/07 01:15:57;;;;;;;9.10;6.10;;;18.80;71.70;;;;;;5033482;28;20173;-75
2022/05/07 01:18:23;;;;;;;7.63;5.90;;;18.80;71.80;;;;;;5033579;28;20101;-75
2022/05/07 01:20:49;;;;;;;6.25;5.50;;;18.80;71.90;;;;;;5033517;28;20029;-76
2022/05/07 01:23:15;;;;;;;6.88;5.80;;;18.80;72.70;;;;;;5033372;28;20484;-75
2022/05/07 01:25:41;;;;;;;7.22;5.78;;;18.80;72.10;;;;;;5033085;28;20462;-75
2022/05/07 01:28:07;;;;;;;6.45;5.25;;;18.80;72.10;;;;;;5033352;28;20032;-75
2022/05/07 01:30:36;;;;;;;7.00;5.78;;;18.80;72.00;;;;;;5033403;28;20029;-75
2022/05/07 01:33:02;;;;;;;7.50;5.70;;;18.80;72.00;;;;;;5033160;28;20037;-75
2022/05/07 01:35:28;;;;;;;5.93;5.35;;;18.90;72.10;;;;;;5033319;28;20022;-76
2022/05/07 01:37:53;;;;;;;7.65;6.22;;;18.90;72.10;;;;;;5033423;28;20369;-75
2022/05/07 01:40:19;;;;;;;6.75;5.60;;;18.90;72.10;;;;;;5032989;28;20057;-75
2022/05/07 01:42:45;;;;;;;7.55;5.63;;;18.80;72.10;;;;;;5033198;28;20021;-75
2022/05/07 01:45:10;;;;;;;6.88;5.95;;;18.80;72.10;;;;;;5033075;28;20022;-75
2022/05/07 01:50:21;;;;;;;10.02;7.10;;;18.80;72.20;;;;;;5032939;28;20032;-75
2022/05/07 01:52:47;;;;;;;8.10;7.30;;;18.80;72.30;;;;;;5032869;28;20029;-75
2022/05/07 01:55:12;;;;;;;8.82;7.00;;;18.70;72.80;;;;;;5033277;28;20457;-75
2022/05/07 01:57:38;;;;;;;8.95;6.90;;;18.60;73.00;;;;;;5032925;28;20021;-75
2022/05/07 02:00:04;;;;;;;8.70;6.20;;;18.60;73.00;;;;;;5032835;28;20029;-75
2022/05/07 02:02:29;;;;;;;9.35;7.40;;;18.60;73.00;;;;;;5032935;28;20022;-75
2022/05/07 02:04:55;;;;;;;10.50;7.78;;;18.60;73.10;;;;;;5032860;28;20026;-75
2022/05/07 02:07:21;;;;;;;7.63;6.85;;;18.60;73.10;;;;;;5033134;28;20030;-75
2022/05/07 02:09:46;;;;;;;9.93;7.57;;;18.60;73.10;;;;;;5032976;28;20048;-75
2022/05/07 02:12:12;;;;;;;9.00;7.60;;;18.60;73.20;;;;;;5032651;28;20034;-75
2022/05/07 02:14:37;;;;;;;9.68;7.57;;;18.60;73.30;;;;;;5033011;28;20017;-76
2022/05/07 02:17:03;;;;;;;9.85;8.05;;;18.60;73.30;;;;;;5032810;28;20025;-75
2022/05/07 02:19:29;;;;;;;9.73;7.93;;;18.60;73.40;;;;;;5033070;28;20021;-75
2022/05/07 02:21:54;;;;;;;9.05;8.02;;;18.60;73.30;;;;;;5032980;28;20163;-76
2022/05/07 02:24:20;;;;;;;9.77;8.77;;;18.60;73.40;;;;;;5035136;28;20025;-75
2022/05/07 02:26:45;;;;;;;12.15;8.55;;;18.60;73.50;;;;;;5036403;28;20025;-75
2022/05/07 02:29:13;;;;;;;9.63;8.65;;;18.60;73.60;;;;;;5036394;28;20408;-75
2022/05/07 02:31:38;;;;;;;9.35;7.90;;;18.50;73.60;;;;;;5036354;28;20103;-75
2022/05/07 02:34:04;;;;;;;10.75;8.98;;;18.50;73.60;;;;;;5036412;28;20018;-75
2022/05/07 02:36:31;;;;;;;14.48;10.00;;;18.50;73.60;;;;;;5036438;28;20102;-75
2022/05/07 02:38:56;;;;;;;10.27;9.23;;;18.50;73.70;;;;;;5036440;28;20416;-75
2022/05/07 02:44:06;;;;;;;12.52;10.55;;;18.50;73.80;;;;;;5036297;28;20024;-75
2022/05/07 02:46:32;;;;;;;11.55;10.35;;;18.60;73.90;;;;;;5035815;28;20053;-75
2022/05/07 02:48:57;;;;;;;10.18;9.13;;;18.50;73.90;;;;;;5036304;28;20021;-75
2022/05/07 02:51:23;;;;;;;11.55;9.90;;;18.60;73.90;;;;;;5036324;28;20068;-76
2022/05/07 02:53:49;;;;;;;11.23;10.13;;;18.60;74.00;;;;;;5036370;28;20041;-75
2022/05/07 02:56:14;;;;;;;11.65;10.18;;;18.60;74.10;;;;;;5036056;28;20026;-75
2022/05/07 02:58:40;;;;;;;9.98;8.98;;;18.60;74.20;;;;;;5035930;28;20080;-75
2022/05/07 03:01:05;;;;;;;11.10;9.75;;;18.60;74.30;;;;;;5036255;28;20033;-75
2022/05/07 03:03:31;;;;;;;11.65;8.90;;;18.60;74.30;;;;;;5036167;28;20108;-75
2022/05/07 03:05:59;;;;;;;10.48;9.40;;;18.50;74.30;;;;;;5035903;28;20086;-76
2022/05/07 03:08:25;;;;;;;11.85;10.35;;;18.50;74.30;;;;;;5035843;28;20029;-75
2022/05/07 03:10:50;;;;;;;10.68;9.57;;;18.50;74.40;;;;;;5035425;28;20422;-75
2022/05/07 03:13:16;;;;;;;9.05;8.10;;;18.50;74.40;;;;;;5035957;28;20489;-75
2022/05/07 03:15:42;;;;;;;12.98;11.50;;;18.50;74.40;;;;;;5035981;28;20381;-75
2022/05/07 03:18:08;;;;;;;16.10;13.95;;;18.50;74.60;;;;;;5035615;28;20053;-76
2022/05/07 03:20:33;;;;;;;17.13;15.48;;;18.40;75.00;;;;;;5035668;28;20026;-75
2022/05/07 03:22:59;;;;;;;18.33;14.60;;;18.30;75.80;;;;;;5035338;28;20075;-75
2022/05/07 03:25:24;;;;;;;15.48;12.73;;;18.10;76.10;;;;;;5035712;28;20018;-75
2022/05/07 03:27:50;;;;;;;15.23;13.65;;;18.10;76.20;;;;;;5035711;28;20017;-75
2022/05/07 03:30:15;;;;;;;19.77;17.17;;;18.00;76.40;;;;;;5035543;28;20021;-75
2022/05/07 03:32:41;;;;;;;14.10;12.70;;;18.00;77.10;;;;;;5035444;28;20065;-75
2022/05/07 03:35:07;;;;;;;14.57;13.13;;;17.90;77.40;;;;;;5035007;28;20056;-75
2022/05/07 03:37:32;;;;;;;15.63;13.85;;;17.90;77.10;;;;;;5035563;28;20025;-75
2022/05/07 03:39:58;;;;;;;14.80;12.35;;;17.90;77.00;;;;;;5035396;28;20346;-75
2022/05/07 03:42:26;;;;;;;12.20;10.77;;;18.00;76.90;;;;;;5034985;28;20026;-76
2022/05/07 03:44:51;;;;;;;12.15;10.93;;;18.00;76.70;;;;;;5035333;28;20406;-75
2022/05/07 03:47:17;;;;;;;15.95;14.35;;;18.00;76.50;;;;;;5034968;28;20073;-75
2022/05/07 03:49:43;;;;;;;16.20;14.48;;;18.00;76.70;;;;;;5035083;28;20112;-75
2022/05/07 03:54:53;;;;;;;20.38;16.13;;;17.90;77.40;;;;;;5035037;28;20060;-75
2022/05/07 03:57:18;;;;;;;20.05;16.45;;;17.80;77.40;;;;;;5034660;28;20426;-75
2022/05/07 03:59:44;;;;;;;14.32;12.93;;;17.90;77.80;;;;;;5035053;28;20031;-76
2022/05/07 04:02:09;;;;;;;14.30;12.80;;;17.80;77.90;;;;;;5034885;28;20029;-76
2022/05/07 04:04:35;;;;;;;15.63;13.98;;;17.80;77.90;;;;;;5034847;28;20044;-75
2022/05/07 04:07:01;;;;;;;14.70;13.10;;;17.90;77.80;;;;;;5034381;28;20380;-73
2022/05/07 04:09:28;;;;;;;15.13;13.52;;;17.90;77.80;;;;;;5034904;28;20033;-73
2022/05/07 04:11:53;;;;;;;13.65;11.52;;;17.90;77.70;;;;;;5034689;28;20120;-73
2022/05/07 04:14:19;;;;;;;13.65;12.18;;;18.00;77.60;;;;;;5034374;28;20065;-76
2022/05/07 04:16:45;;;;;;;15.77;13.85;;;18.00;77.30;;;;;;5034634;28;20022;-76
2022/05/07 04:19:12;;;;;;;17.67;15.48;;;18.10;77.40;;;;;;5034556;28;20033;-73
2022/05/07 04:21:38;;;;;;;17.48;14.30;;;18.10;77.40;;;;;;5034254;28;20033;-73
2022/05/07 04:24:05;;;;;;;17.45;15.23;;;18.10;77.40;;;;;;5034612;28;20025;-73
2022/05/07 04:26:31;;;;;;;18.63;14.80;;;18.10;77.50;;;;;;5034287;28;20025;-73
2022/05/07 04:28:56;;;;;;;15.43;13.82;;;18.10;77.40;;;;;;5033975;28;20025;-73
2022/05/07 04:31:22;;;;;;;12.60;11.38;;;18.10;77.40;;;;;;5034465;28;20130;-73
2022/05/07 04:33:47;;;;;;;16.48;14.50;;;18.20;77.40;;;;;;5034508;28;20416;-73
2022/05/07 04:36:13;;;;;;;17.05;14.10;;;18.20;77.40;;;;;;5033942;28;20032;-73
2022/05/07 04:38:39;;;;;;;17.27;14.60;;;18.20;77.50;;;;;;5033876;28;20034;-73
2022/05/07 04:41:04;;;;;;;19.50;15.15;;;18.20;77.50;;;;;;5034226;28;20075;-74
2022/05/07 04:43:30;;;;;;;18.40;15.68;;;18.20;77.60;;;;;;5034061;28;20025;-74
2022/05/07 04:45:56;;;;;;;18.73;16.00;;;18.20;77.60;;;;;;5033260;28;20041;-74
2022/05/07 04:48:21;;;;;;;20.05;17.63;;;18.20;77.70;;;;;;5034129;28;20037;-74
2022/05/07 04:50:47;;;;;;;19.02;16.88;;;18.20;77.80;;;;;;5033816;28;20024;-74
2022/05/07 04:53:13;;;;;;;18.00;16.10;;;18.20;77.90;;;;;;5033753;28;20437;-74
2022/05/07 04:55:38;;;;;;;21.42;16.75;;;18.20;77.90;;;;;;5034028;28;20031;-74
2022/05/07 04:58:04;;;;;;;18.35;16.45;;;18.20;77.90;;;;;;5033851;28;20424;-74
2022/05/07 05:00:29;;;;;;;20.20;15.05;;;18.30;77.90;;;;;;5033639;28;20103;-74
2022/05/07 05:02:55;;;;;;;20.05;17.02;;;18.20;77.90;;;;;;5033663;28;20136;-74
2022/05/07 05:05:21;;;;;;;20.08;17.73;;;18.30;77.90;;;;;;5033884;28;20079;-74
2022/05/07 05:07:46;;;;;;;19.17;16.63;;;18.30;77.90;;;;;;5033477;28;20037;-74
2022/05/07 05:10:12;;;;;;;19.45;17.50;;;18.30;78.10;;;;;;5033587;28;20108;-74
2022/05/07 05:12:37;;;;;;;19.92;17.77;;;18.30;78.40;;;;;;5033283;28;20033;-74
2022/05/07 05:15:08;;;;;;;20.60;18.38;;;18.20;78.60;;;;;;5033553;28;20017;-74
2022/05/07 05:17:34;;;;;;;20.30;17.60;;;18.20;78.90;;;;;;5033726;28;20037;-74
2022/05/07 05:20:01;;;;;;;19.45;17.40;;;18.20;79.10;;;;;;5033593;28;20021;-74
2022/05/07 05:22:27;;;;;;;19.70;17.13;;;18.20;79.30;;;;;;5033557;28;20025;-74
2022/05/07 05:24:53;;;;;;;19.27;17.20;;;18.20;79.60;;;;;;5033488;28;20029;-74
2022/05/07 05:27:19;;;;;;;18.67;16.50;;;18.20;79.80;;;;;;5033034;28;20025;-74
2022/05/07 05:29:45;;;;;;;19.52;17.17;;;18.20;80.00;;;;;;5033476;28;20060;-74
2022/05/07 05:32:17;;;;;;;21.17;16.90;;;18.20;80.20;;;;;;5033074;28;20065;-74
2022/05/07 05:34:46;;;;;;;19.95;17.85;;;18.20;80.40;;;;;;5033125;28;20086;-74
2022/05/07 05:37:13;;;;;;;20.55;18.38;;;18.20;80.60;;;;;;5033045;28;20469;-74
2022/05/07 05:39:39;;;;;;;21.23;18.92;;;18.20;81.10;;;;;;5033012;28;20033;-74
2022/05/07 05:42:05;;;;;;;21.15;18.80;;;18.20;81.50;;;;;;5033174;28;20473;-75
2022/05/07 05:44:30;;;;;;;21.30;18.40;;;18.20;81.80;;;;;;5032984;28;20373;-74
2022/05/07 05:46:56;;;;;;;23.98;21.48;;;18.20;82.10;;;;;;5032792;28;20041;-74
2022/05/07 05:49:21;;;;;;;23.48;20.27;;;18.20;82.60;;;;;;5033215;28;20033;-74
2022/05/07 05:51:47;;;;;;;21.77;19.58;;;18.20;82.90;;;;;;5032896;28;20539;-74
2022/05/07 05:54:13;;;;;;;24.38;21.77;;;18.20;83.00;;;;;;5033087;28;20029;-74
2022/05/07 05:56:39;;;;;;;23.70;21.02;;;18.10;83.20;;;;;;5032940;28;20080;-74
2022/05/07 05:59:04;;;;;;;24.48;21.88;;;18.20;83.30;;;;;;5034617;28;20026;-74
2022/05/07 06:01:30;;;;;;;24.98;22.27;;;18.20;83.40;;;;;;5036964;28;20032;-74
2022/05/07 06:03:56;;;;;;;27.40;23.27;;;18.10;83.60;;;;;;5036767;28;20021;-74
2022/05/07 06:06:21;;;;;;;26.48;22.95;;;18.20;83.90;;;;;;5036876;28;20083;-74
2022/05/07 06:08:47;;;;;;;25.50;22.33;;;18.10;83.70;;;;;;5036883;28;20021;-74
2022/05/07 06:11:13;;;;;;;26.95;24.05;;;18.20;83.70;;;;;;5036843;28;20086;-75
2022/05/07 06:13:38;;;;;;;25.95;23.30;;;18.20;83.90;;;;;;5036698;28;20079;-74
2022/05/07 06:16:04;;;;;;;28.33;24.98;;;18.20;84.00;;;;;;5036690;28;20033;-74
2022/05/07 06:18:30;;;;;;;26.98;23.90;;;18.20;84.00;;;;;;5036713;28;20149;-74
2022/05/07 06:20:55;;;;;;;28.15;23.95;;;18.20;83.90;;;;;;5036845;28;20018;-74
2022/05/07 06:23:21;;;;;;;28.38;23.90;;;18.20;83.90;;;;;;5036719;28;20096;-74
2022/05/07 06:28:31;;;;;;;29.63;25.70;;;18.20;83.80;;;;;;5036585;28;20036;-74
2022/05/07 06:30:57;;;;;;;28.73;25.70;;;18.10;83.70;;;;;;5036260;28;20116;-74
2022/05/07 06:33:23;;;;;;;27.38;24.00;;;18.10;83.90;;;;;;5036387;28;20026;-74
2022/05/07 06:35:49;;;;;;;29.50;24.33;;;18.10;84.10;;;;;;5036287;28;20026;-74
2022/05/07 06:38:16;;;;;;;26.13;23.23;;;18.10;84.40;;;;;;5036529;28;20026;-74
2022/05/07 06:40:42;;;;;;;25.05;22.30;;;18.10;84.30;;;;;;5036139;28;20513;-74
2022/05/07 06:43:07;;;;;;;25.60;22.02;;;18.10;84.20;;;;;;5036278;28;20065;-74
2022/05/07 06:45:33;;;;;;;27.08;22.05;;;18.20;84.40;;;;;;5035809;28;20076;-74
2022/05/07 06:48:00;;;;;;;24.50;21.63;;;18.30;84.40;;;;;;5035910;28;20384;-74
2022/05/07 06:50:26;;;;;;;26.63;21.40;;;18.30;84.30;;;;;;5036078;28;20506;-74
2022/05/07 06:52:51;;;;;;;29.88;21.63;;;18.40;83.90;;;;;;5035917;28;20033;-74
2022/05/07 06:55:18;;;;;;;22.35;19.80;;;18.30;83.50;;;;;;5036019;28;20100;-74
2022/05/07 06:57:45;;;;;;;24.98;19.63;;;18.30;83.40;;;;;;5036173;28;20029;-74
2022/05/07 07:00:12;;;;;;;24.90;17.70;;;18.40;83.20;;;;;;5036230;28;20035;-74
2022/05/07 07:02:38;;;;;;;19.63;17.20;;;18.40;82.40;;;;;;5036281;28;20018;-75
2022/05/07 07:05:05;;;;;;;20.88;17.30;;;18.40;82.20;;;;;;5036218;28;20029;-75
2022/05/07 07:07:31;;;;;;;21.15;16.17;;;18.30;81.90;;;;;;5036149;28;20022;-75
2022/05/07 07:09:57;;;;;;;23.75;16.95;;;18.30;82.20;;;;;;5035124;28;20535;-75
2022/05/07 07:12:23;;;;;;;26.27;17.75;;;18.30;82.10;;;;;;5035946;28;20072;-75
2022/05/07 07:14:49;;;;;;;20.77;15.77;;;18.40;82.30;;;;;;5035919;28;20049;-75
2022/05/07 07:17:17;;;;;;;24.85;17.67;;;18.50;82.20;;;;;;5035996;28;20032;-75
2022/05/07 07:19:43;;;;;;;24.58;17.40;;;18.60;82.00;;;;;;5035374;28;20018;-75
2022/05/07 07:22:09;;;;;;;22.02;16.05;;;18.70;81.90;;;;;;5035701;28;20036;-75
2022/05/07 07:24:35;;;;;;;21.90;17.20;;;18.70;81.60;;;;;;5035701;28;20022;-75
2022/05/07 07:27:02;;;;;;;20.58;15.63;;;18.70;81.70;;;;;;5035498;28;20029;-75
2022/05/07 07:29:28;;;;;;;19.65;15.77;;;18.80;82.20;;;;;;5035157;28;20117;-75
2022/05/07 07:31:54;;;;;;;20.35;16.13;;;18.80;81.90;;;;;;5035551;28;20120;-75
2022/05/07 07:34:21;;;;;;;20.90;15.32;;;18.90;81.30;;;;;;5035620;28;20462;-75
2022/05/07 07:36:50;;;;;;;24.77;15.88;;;19.00;81.20;;;;;;5035503;28;20021;-75
2022/05/07 07:39:16;;;;;;;25.40;15.75;;;19.10;80.80;;;;;;5035425;28;20032;-75
2022/05/07 07:41:42;;;;;;;25.65;15.32;;;19.10;80.60;;;;;;5035520;28;20059;-75
2022/05/07 07:44:08;;;;;;;22.25;15.07;;;19.10;80.70;;;;;;5034973;28;20049;-75
2022/05/07 07:49:18;;;;;;;20.35;14.82;;;19.10;80.90;;;;;;5035210;28;20032;-75
2022/05/07 07:51:44;;;;;;;25.00;14.02;;;19.20;80.60;;;;;;5035064;28;20124;-75
2022/05/07 07:54:10;;;;;;;19.90;13.70;;;19.20;80.10;;;;;;5034993;28;20025;-75
2022/05/07 07:56:35;;;;;;;20.88;13.30;;;19.20;80.10;;;;;;5035149;28;20495;-75
2022/05/07 07:59:01;;;;;;;21.45;13.32;;;19.30;79.70;;;;;;5034823;28;20028;-75
2022/05/07 08:01:27;;;;;;;18.45;12.82;;;19.40;79.20;;;;;;5034757;28;20084;-75
2022/05/07 08:03:53;;;;;;;21.00;13.77;;;19.50;79.00;;;;;;5034759;28;20465;-75
2022/05/07 08:06:18;;;;;;;21.05;13.43;;;19.60;78.50;;;;;;5034823;28;20017;-75
2022/05/07 08:11:40;;;;;;;21.30;11.80;;;19.80;76.20;;;;;;5034482;28;20037;-75
2022/05/07 08:14:13;;;;;;;19.08;12.38;;;19.90;74.40;;;;;;5034636;28;20366;-75
2022/05/07 08:16:39;;;;;;;19.83;11.73;;;19.90;73.50;;;;;;5034970;28;20029;-75
2022/05/07 08:19:06;;;;;;;23.70;12.20;;;19.90;73.10;;;;;;5034485;28;20083;-75
2022/05/07 08:21:32;;;;;;;19.83;10.93;;;20.00;72.90;;;;;;5033579;28;20500;-75
2022/05/07 08:23:58;;;;;;;20.85;11.55;;;20.10;72.80;;;;;;5034719;28;20025;-75
2022/05/07 08:26:24;;;;;;;17.63;10.10;;;20.30;72.10;;;;;;5034566;28;20022;-75
2022/05/07 08:28:53;;;;;;;17.58;10.93;;;20.40;71.30;;;;;;5034337;28;20040;-75
2022/05/07 08:31:23;;;;;;;17.88;10.40;;;20.50;70.90;;;;;;5034222;28;20432;-75
2022/05/07 08:33:49;;;;;;;17.83;9.45;;;20.60;69.60;;;;;;5034269;28;20021;-75
2022/05/07 08:36:15;;;;;;;15.80;10.32;;;20.70;69.90;;;;;;5034414;28;20060;-75
2022/05/07 08:38:42;;;;;;;15.68;8.63;;;20.80;69.30;;;;;;5034109;28;20033;-75
2022/05/07 08:41:11;;;;;;;15.27;9.55;;;20.80;69.30;;;;;;5033894;28;20397;-75
2022/05/07 08:43:41;;;;;;;18.52;10.05;;;20.90;68.70;;;;;;5034094;28;20125;-75
2022/05/07 08:46:19;;;;;;;17.30;10.15;;;20.90;68.40;;;;;;5033827;28;20505;-75
2022/05/07 08:48:46;;;;;;;21.13;11.20;;;21.00;68.40;;;;;;5034174;28;20109;-75
2022/05/07 08:51:14;;;;;;;20.38;10.43;;;21.00;68.00;;;;;;5034080;28;20036;-75
2022/05/07 08:53:40;;;;;;;18.25;10.38;;;21.10;69.00;;;;;;5033677;28;20033;-75
2022/05/07 08:56:07;;;;;;;18.85;10.65;;;21.10;68.70;;;;;;5034051;28;20026;-75
2022/05/07 08:58:32;;;;;;;21.40;10.48;;;21.20;69.10;;;;;;5034020;28;20400;-75
2022/05/07 09:01:00;;;;;;;20.77;10.60;;;21.30;69.60;;;;;;5033709;28;20025;-75
2022/05/07 09:03:40;;;;;;;16.30;10.45;;;21.40;69.80;;;;;;5033551;28;20022;-75
2022/05/07 09:06:16;;;;;;;21.38;10.45;;;21.40;69.40;;;;;;5033609;28;20068;-75
2022/05/07 09:08:43;;;;;;;16.60;10.05;;;21.60;69.30;;;;;;5033790;28;20080;-75
2022/05/07 09:11:08;;;;;;;21.27;11.57;;;21.70;69.10;;;;;;5033725;28;20036;-75
2022/05/07 09:13:35;;;;;;;19.33;11.02;;;21.80;68.60;;;;;;5033803;28;20033;-75
2022/05/07 09:16:02;;;;;;;16.15;11.27;;;22.00;69.30;;;;;;5033537;28;20084;-75
2022/05/07 09:18:28;;;;;;;16.55;9.65;;;22.10;68.10;;;;;;5033468;28;20035;-75
2022/05/07 09:21:16;;;;;;;16.65;10.70;;;22.20;68.50;;;;;;5033622;28;20105;-75
2022/05/07 09:23:57;;;;;;;17.17;10.02;;;22.30;68.10;;;;;;5033294;28;20026;-75
2022/05/07 09:26:30;;;;;;;15.40;9.90;;;22.40;67.80;;;;;;5033320;28;20389;-75
2022/05/07 09:28:57;;;;;;;19.83;10.48;;;22.40;67.10;;;;;;5033297;28;20028;-75
2022/05/07 09:31:28;;;;;;;16.13;8.82;;;22.50;67.00;;;;;;5033159;28;20041;-75
2022/05/07 09:36:42;;;;;;;15.93;8.27;;;22.80;65.40;;;;;;5033523;28;20164;-76
2022/05/07 09:39:10;;;;;;;19.40;8.18;;;22.90;65.00;;;;;;5033415;28;20104;-75
2022/05/07 09:41:35;;;;;;;13.30;7.95;;;23.00;64.90;;;;;;5033060;28;20116;-75
2022/05/07 09:44:01;;;;;;;16.38;7.63;;;23.10;63.80;;;;;;5033242;28;20050;-75
2022/05/07 09:46:30;;;;;;;13.60;8.10;;;23.10;64.00;;;;;;5033100;28;20128;-75
2022/05/07 09:48:59;;;;;;;15.65;8.30;;;23.00;62.70;;;;;;5033387;28;20101;-75
2022/05/07 09:51:25;;;;;;;15.20;8.38;;;22.80;62.90;;;;;;5033153;28;20025;-75
2022/05/07 09:59:19;;;;;;;17.88;10.07;;;22.60;63.90;;;;;;5033193;28;20519;-75
2022/05/07 10:02:23;;;;;;;14.45;9.27;;;22.50;63.70;;;;;;5033223;28;20034;-75
2022/05/07 10:05:01;;;;;;;15.10;9.85;;;22.50;65.00;;;;;;5033073;28;20243;-75
2022/05/07 10:07:48;;;;;;;16.90;9.77;;;22.60;65.40;;;;;;5032845;28;20485;-75
2022/05/07 10:10:24;;;;;;;15.65;9.10;;;22.70;64.40;;;;;;5032949;28;20026;-75
2022/05/07 10:12:55;;;;;;;16.40;9.05;;;22.90;63.80;;;;;;5033195;28;20115;-75
2022/05/07 10:15:23;;;;;;;14.00;10.15;;;22.90;64.00;;;;;;5032872;28;20374;-75
2022/05/07 10:18:07;;;;;;;16.83;9.20;;;22.80;63.10;;;;;;5033089;28;20029;-75
2022/05/07 10:20:53;;;;;;;15.25;9.23;;;22.80;63.20;;;;;;5033102;28;20033;-75
2022/05/07 10:23:32;;;;;;;16.23;10.82;;;22.80;63.10;;;;;;5032488;28;20030;-75
2022/05/07 10:25:58;;;;;;;12.70;8.48;;;23.00;63.40;;;;;;5032944;28;20096;-75
2022/05/07 10:28:38;;;;;;;15.25;8.85;;;23.10;65.00;;;;;;5032592;28;20346;-75
2022/05/07 10:31:14;;;;;;;15.38;9.80;;;23.30;62.70;;;;;;5032792;28;20025;-75
2022/05/07 10:33:40;;;;;;;18.38;10.35;;;23.50;62.50;;;;;;5032642;28;20037;-75
2022/05/07 10:36:10;;;;;;;16.70;10.45;;;23.70;61.00;;;;;;5032813;28;20027;-75
2022/05/07 10:38:39;;;;;;;16.90;10.10;;;23.80;62.70;;;;;;5032722;28;20057;-75
2022/05/07 10:41:12;;;;;;;14.02;9.48;;;23.80;60.90;;;;;;5032735;28;20028;-75
2022/05/07 10:43:38;;;;;;;18.42;9.25;;;23.90;60.90;;;;;;5032791;28;20109;-75
2022/05/07 10:46:04;;;;;;;13.48;8.80;;;24.10;61.50;;;;;;5035779;28;20069;-75
2022/05/07 10:48:43;;;;;;;11.90;7.43;;;24.20;60.00;;;;;;5036315;28;20029;-75
2022/05/07 10:51:31;;;;;;;12.15;7.57;;;24.30;58.70;;;;;;5036257;28;20033;-75
2022/05/07 10:54:00;;;;;;;10.60;7.32;;;24.30;58.10;;;;;;5036462;28;20075;-75
2022/05/07 10:56:27;;;;;;;13.20;8.13;;;24.40;58.20;;;;;;5036194;28;20029;-75
2022/05/07 10:58:55;;;;;;;13.50;8.07;;;24.60;57.70;;;;;;5036038;28;20029;-75
2022/05/07 11:01:22;;;;;;;13.85;8.60;;;24.70;58.20;;;;;;5036106;28;20021;-75
2022/05/07 11:03:59;;;;;;;13.00;8.68;;;24.90;58.40;;;;;;5036014;28;20030;-75
2022/05/07 11:06:25;;;;;;;12.77;9.25;;;24.70;57.10;;;;;;5036231;28;20060;-75
2022/05/07 11:08:55;;;;;;;13.57;8.65;;;24.50;57.70;;;;;;5035935;28;20025;-75
2022/05/07 11:11:21;;;;;;;12.68;7.35;;;24.20;58.50;;;;;;5035831;28;20045;-76
2022/05/07 11:13:57;;;;;;;15.20;7.85;;;24.10;59.10;;;;;;5035807;28;20101;-75
2022/05/07 11:16:24;;;;;;;16.52;9.80;;;24.00;59.20;;;;;;5035850;28;20033;-75
2022/05/07 11:18:54;;;;;;;12.63;8.20;;;23.90;59.60;;;;;;5035734;28;20403;-75
2022/05/07 11:21:24;;;;;;;10.68;7.60;;;23.60;60.80;;;;;;5035406;28;20025;-75
2022/05/07 11:23:57;;;;;;;14.23;7.57;;;23.40;60.70;;;;;;5035198;28;20053;-75
2022/05/07 11:26:24;;;;;;;11.27;7.95;;;23.40;60.90;;;;;;5035790;28;20026;-75
2022/05/07 11:28:51;;;;;;;13.00;7.25;;;23.30;60.20;;;;;;5035501;28;20388;-75
2022/05/07 11:31:30;;;;;;;13.82;9.07;;;23.20;60.60;;;;;;5035728;28;20029;-75
2022/05/07 11:34:03;;;;;;;12.35;7.60;;;23.20;61.30;;;;;;5035634;28;20033;-75
2022/05/07 11:36:29;;;;;;;13.00;7.75;;;23.00;61.70;;;;;;5035375;28;20021;-75
2022/05/07 11:39:05;;;;;;;15.77;9.20;;;22.90;62.10;;;;;;5035382;28;20492;-75
2022/05/07 11:41:31;;;;;;;11.93;7.75;;;22.90;62.90;;;;;;5035460;28;20025;-75
2022/05/07 11:46:51;;;;;;;12.27;7.43;;;22.70;63.30;;;;;;5035043;28;20076;-75
2022/05/07 11:49:33;;;;;;;13.00;6.68;;;22.70;62.90;;;;;;5035244;28;20500;-75
2022/05/07 11:52:12;;;;;;;11.52;7.18;;;22.60;63.00;;;;;;5034928;28;20030;-75
2022/05/07 11:54:49;;;;;;;14.45;7.45;;;22.50;63.10;;;;;;5035426;28;20078;-75
2022/05/07 11:57:25;;;;;;;21.08;8.05;;;22.30;65.80;;;;;;5035163;28;20087;-75
2022/05/07 11:59:51;;;;;;;17.38;8.23;;;22.10;70.70;;;;;;5034564;28;20028;-76
2022/05/07 12:02:16;;;;;;;18.40;8.50;;;21.80;74.10;;;;;;5035124;28;20041;-75
2022/05/07 12:04:43;;;;;;;11.82;7.25;;;21.50;76.30;;;;;;5035110;28;20506;-75
2022/05/07 12:07:10;;;;;;;14.35;7.82;;;21.30;78.10;;;;;;5034707;28;20025;-75
2022/05/07 12:09:36;;;;;;;13.43;7.05;;;21.10;79.00;;;;;;5034751;28;20022;-76
2022/05/07 12:12:01;;;;;;;15.10;7.22;;;21.00;79.30;;;;;;5034498;28;20048;-75
2022/05/07 12:14:27;;;;;;;10.18;6.00;;;20.90;80.10;;;;;;5034975;28;20021;-75
2022/05/07 12:19:37;;;;;;;10.05;7.03;;;20.80;81.40;;;;;;5034702;28;20435;-75
2022/05/07 12:30:15;;;;;;;11.43;6.07;;;20.60;83.80;;;;;;5034750;28;20028;-75
2022/05/07 12:32:43;;;;;;;10.63;6.82;;;20.50;84.90;;;;;;5034100;28;20041;-75
2022/05/07 12:35:12;;;;;;;10.52;6.68;;;20.30;85.70;;;;;;5034358;28;20430;-75
2022/05/07 12:37:38;;;;;;;16.63;7.65;;;20.20;86.00;;;;;;5034385;28;20025;-75
2022/05/07 12:40:07;;;;;;;12.68;8.27;;;20.10;86.40;;;;;;5034216;28;20025;-76
2022/05/07 12:42:33;;;;;;;15.52;9.32;;;20.10;87.90;;;;;;5034220;28;20112;-76
2022/05/07 12:44:59;;;;;;;18.85;10.85;;;20.10;88.30;;;;;;5033835;28;20025;-76
2022/05/07 12:47:25;;;;;;;16.17;10.32;;;20.20;90.20;;;;;;5033898;28;20044;-76
2022/05/07 12:49:51;;;;;;;14.82;9.93;;;20.40;91.70;;;;;;5034336;28;20032;-76
2022/05/07 12:52:17;;;;;;;12.32;8.20;;;20.60;91.70;;;;;;5033989;28;20159;-75
2022/05/07 12:54:42;;;;;;;13.25;8.45;;;20.90;92.00;;;;;;5033937;28;20060;-76
2022/05/07 12:57:10;;;;;;;13.20;8.43;;;21.30;91.70;;;;;;5033845;28;20049;-76
2022/05/07 12:59:38;;;;;;;17.17;8.93;;;21.50;90.60;;;;;;5033591;28;20392;-75
2022/05/07 13:02:10;;;;;;;13.50;8.50;;;21.60;87.70;;;;;;5033786;28;20025;-75
2022/05/07 13:04:36;;;;;;;10.65;7.57;;;21.60;86.10;;;;;;5033452;28;20057;-75
2022/05/07 13:07:02;;;;;;;9.40;6.18;;;21.60;83.00;;;;;;5033565;28;20057;-75
2022/05/07 13:09:28;;;;;;;9.73;7.22;;;21.50;82.20;;;;;;5033936;28;20029;-75
2022/05/07 13:11:54;;;;;;;9.77;6.63;;;21.70;84.10;;;;;;5033877;28;20029;-75
2022/05/07 13:14:20;;;;;;;11.88;7.32;;;21.90;81.60;;;;;;5033717;28;20036;-75
2022/05/07 13:16:48;;;;;;;11.48;6.60;;;22.10;82.10;;;;;;5033551;28;20440;-76
2022/05/07 13:19:14;;;;;;;10.18;6.40;;;22.20;79.90;;;;;;5033712;28;20033;-75